Time;durP1;ratioP1;P1;durP2;ratioP2;P2;SDS_P1;SDS_P2;PMS_P1;PMS_P2;Temp;Humidity;BMP_temperature;BMP_pressure;BME280_temperature;BME280_humidity;BME280_pressure;Samples;Min_cycle;Max_cycle;Signal;HPM_P1;HPM_P2
2021/10/22 00:00:20;;;;;;;3.60;2.00;;;;;;;;;;5041403;28;20021;-80
2021/10/22 00:02:46;;;;;;;5.90;2.38;;;;;;;;;;5041462;28;20032;-80
2021/10/22 00:05:12;;;;;;;4.80;2.78;;;;;;;;;;5056188;28;20117;-80
2021/10/22 00:07:39;;;;;;;3.50;1.83;;;;;;;;;;5040372;28;20076;-80
2021/10/22 00:10:06;;;;;;;5.30;2.38;;;9.60;99.90;;;;;;5041563;28;20022;-80
2021/10/22 00:12:32;;;;;;;5.85;2.50;;;6.60;99.90;;;;;;5040692;28;20037;-80
2021/10/22 00:14:58;;;;;;;3.50;2.03;;;5.80;99.90;;;;;;5039576;28;20044;-80
2021/10/22 00:17:24;;;;;;;7.78;3.08;;;6.00;99.90;;;;;;5041100;28;20039;-80
2021/10/22 00:19:50;;;;;;;5.82;2.90;;;5.90;99.90;;;;;;5039942;28;20202;-80
2021/10/22 00:22:16;;;;;;;10.10;2.72;;;5.90;99.90;;;;;;5055627;28;20037;-80
2021/10/22 00:24:42;;;;;;;4.38;3.00;;;5.80;99.90;;;;;;5041778;28;20029;-80
2021/10/22 00:27:07;;;;;;;5.78;3.00;;;5.80;99.90;;;;;;5040706;28;20040;-80
2021/10/22 00:29:33;;;;;;;3.97;2.65;;;5.80;99.90;;;;;;5040911;28;20081;-80
2021/10/22 00:31:59;;;;;;;3.22;2.45;;;5.80;99.90;;;;;;5040661;28;20072;-80
2021/10/22 00:34:25;;;;;;;3.28;2.53;;;5.70;99.90;;;;;;5040684;28;20647;-80
2021/10/22 00:36:51;;;;;;;2.95;2.10;;;5.60;99.90;;;;;;5039716;28;20581;-80
2021/10/22 00:39:17;;;;;;;3.83;2.22;;;5.30;99.90;;;;;;5039574;28;20418;-79
2021/10/22 00:41:43;;;;;;;3.63;1.80;;;5.20;99.90;;;;;;5040009;28;20022;-79
2021/10/22 00:44:10;;;;;;;4.10;2.55;;;5.20;99.90;;;;;;5040336;28;20097;-80
2021/10/22 00:46:38;;;;;;;4.50;2.60;;;5.40;99.90;;;;;;5055066;28;20025;-80
2021/10/22 00:49:11;;;;;;;4.05;2.72;;;5.80;99.90;;;;;;5060613;28;20498;-79
2021/10/22 00:51:37;;;;;;;2.78;2.03;;;5.20;99.90;;;;;;5054162;28;20041;-79
2021/10/22 00:54:08;;;;;;;5.88;3.30;;;5.00;99.90;;;;;;5041409;28;20087;-80
2021/10/22 00:56:34;;;;;;;8.55;2.88;;;5.20;99.90;;;;;;5041615;28;20061;-79
2021/10/22 00:59:02;;;;;;;7.63;3.35;;;5.20;99.90;;;;;;5040020;28;20088;-79
2021/10/22 01:01:27;;;;;;;5.10;3.05;;;7.00;99.90;;;;;;5039803;28;20021;-79
2021/10/22 01:03:53;;;;;;;4.68;2.63;;;6.90;99.90;;;;;;5040435;28;20103;-80
2021/10/22 01:06:18;;;;;;;5.20;2.60;;;5.20;99.90;;;;;;5041014;28;20022;-79
2021/10/22 01:08:44;;;;;;;4.28;2.33;;;5.00;99.90;;;;;;5041358;28;20033;-79
2021/10/22 01:11:10;;;;;;;4.30;2.30;;;6.70;99.90;;;;;;5040652;28;20052;-80
2021/10/22 01:13:37;;;;;;;3.80;2.40;;;4.80;99.90;;;;;;5042128;28;20034;-80
2021/10/22 01:16:03;;;;;;;5.70;3.22;;;4.80;99.90;;;;;;5041492;28;20074;-80
2021/10/22 01:18:29;;;;;;;5.43;2.53;;;4.90;99.90;;;;;;5039233;28;20425;-80
2021/10/22 01:21:04;;;;;;;5.57;2.05;;;4.70;99.90;;;;;;5054323;28;20116;-79
2021/10/22 01:23:30;;;;;;;2.38;1.83;;;4.60;99.90;;;;;;5040220;28;20021;-80
2021/10/22 01:25:57;;;;;;;3.13;1.95;;;4.30;99.90;;;;;;5056205;28;20030;-80
2021/10/22 01:28:22;;;;;;;3.47;2.10;;;4.30;99.90;;;;;;5039245;28;20032;-80
2021/10/22 01:30:48;;;;;;;2.92;1.88;;;4.40;99.90;;;;;;5040459;28;20049;-80
2021/10/22 01:33:19;;;;;;;3.85;2.10;;;4.40;99.90;;;;;;5049920;28;20112;-80
2021/10/22 01:35:45;;;;;;;3.53;2.00;;;4.30;99.90;;;;;;5033887;28;20044;-79
2021/10/22 01:38:17;;;;;;;3.45;1.85;;;4.30;99.90;;;;;;5050835;28;20048;-79
2021/10/22 01:40:44;;;;;;;2.55;2.00;;;4.30;99.90;;;;;;5032199;28;20077;-80
2021/10/22 01:43:09;;;;;;;3.22;2.08;;;4.30;99.90;;;;;;5042356;28;20076;-80
2021/10/22 01:45:36;;;;;;;2.05;1.55;;;4.30;99.90;;;;;;5021588;28;20030;-80
2021/10/22 01:48:02;;;;;;;6.13;1.90;;;4.40;99.90;;;;;;5038495;28;20144;-80
2021/10/22 01:50:28;;;;;;;3.20;1.80;;;4.20;99.90;;;;;;5040224;28;20033;-80
2021/10/22 01:52:54;;;;;;;5.55;2.05;;;4.10;99.90;;;;;;5038887;28;20030;-80
2021/10/22 01:55:20;;;;;;;5.38;2.25;;;3.80;99.90;;;;;;5042357;28;20018;-80
2021/10/22 01:57:45;;;;;;;3.38;1.77;;;4.40;99.90;;;;;;5044490;28;20520;-81
2021/10/22 02:00:11;;;;;;;2.30;1.80;;;5.40;99.90;;;;;;5026609;28;20044;-81
2021/10/22 02:02:37;;;;;;;3.13;1.73;;;4.40;99.90;;;;;;5026380;28;20060;-81
2021/10/22 02:05:03;;;;;;;5.75;2.10;;;3.90;99.90;;;;;;5043679;28;20022;-81
2021/10/22 02:07:29;;;;;;;2.72;1.80;;;4.00;99.90;;;;;;5042456;28;20031;-81
2021/10/22 02:09:54;;;;;;;4.03;2.20;;;3.80;99.90;;;;;;5041954;28;20025;-81
2021/10/22 02:12:20;;;;;;;5.55;1.80;;;3.80;99.90;;;;;;5042546;28;20026;-80
2021/10/22 02:14:46;;;;;;;3.08;1.58;;;3.70;99.90;;;;;;5043069;28;20025;-80
2021/10/22 02:17:11;;;;;;;4.45;1.50;;;3.80;99.90;;;;;;5062861;28;20562;-80
2021/10/22 02:19:37;;;;;;;2.95;1.65;;;3.50;99.90;;;;;;5063036;28;20037;-80
2021/10/22 02:22:03;;;;;;;4.53;1.70;;;3.60;99.90;;;;;;5065536;28;20033;-81
2021/10/22 02:24:29;;;;;;;3.97;1.60;;;4.30;99.90;;;;;;5063960;28;20017;-80
2021/10/22 02:26:54;;;;;;;2.75;1.55;;;4.80;99.90;;;;;;5062763;28;20108;-80
2021/10/22 02:29:20;;;;;;;5.43;1.63;;;3.50;99.90;;;;;;5064116;28;20484;-80
2021/10/22 02:31:46;;;;;;;3.00;1.85;;;3.20;99.90;;;;;;5063268;28;20025;-81
2021/10/22 02:34:12;;;;;;;5.43;1.77;;;5.20;99.90;;;;;;5046254;28;20073;-80
2021/10/22 02:36:38;;;;;;;4.20;1.60;;;3.30;99.90;;;;;;5064084;28;20025;-80
2021/10/22 02:39:04;;;;;;;2.05;1.65;;;;;;;;;;5064553;28;20031;-80
2021/10/22 02:41:31;;;;;;;3.08;1.65;;;;;;;;;;5082764;28;20111;-80
2021/10/22 02:43:57;;;;;;;9.35;1.98;;;;;;;;;;5068912;28;20488;-80
2021/10/22 02:46:23;;;;;;;3.00;2.00;;;;;;;;;;5058657;22;20125;-76
2021/10/22 02:48:49;;;;;;;5.53;2.40;;;;;;;;;;5034090;28;20108;-76
2021/10/22 02:51:15;;;;;;;6.28;2.40;;;;;;;;;;5033587;28;20100;-76
2021/10/22 02:53:41;;;;;;;5.75;2.28;;;;;;;;;;5049682;28;20028;-76
2021/10/22 02:56:07;;;;;;;6.93;2.60;;;;;;;;;;5034034;28;20037;-76
2021/10/22 02:58:33;;;;;;;3.20;2.30;;;;;;;;;;5048770;28;20048;-76
2021/10/22 03:00:59;;;;;;;5.72;2.13;;;;;;;;;;5033485;28;20030;-77
2021/10/22 03:03:25;;;;;;;6.72;3.33;;;;;;;;;;5034047;28;20100;-77
2021/10/22 03:05:51;;;;;;;6.65;3.40;;;;;;;;;;5033819;28;20378;-76
2021/10/22 03:08:17;;;;;;;8.75;4.22;;;;;;;;;;5033729;28;20377;-77
2021/10/22 03:10:43;;;;;;;10.40;4.93;;;;;;;;;;5033170;28;20026;-76
2021/10/22 03:13:09;;;;;;;8.50;3.97;;;;;;;;;;5033750;28;20030;-75
2021/10/22 03:15:35;;;;;;;5.40;3.70;;;;;;;;;;5049192;28;20206;-77
2021/10/22 03:18:01;;;;;;;6.28;3.55;;;;;;;;;;5034270;28;20100;-76
2021/10/22 03:20:27;;;;;;;9.25;3.50;;;;;;;;;;5033502;28;20026;-76
2021/10/22 03:22:53;;;;;;;10.82;3.53;;;;;;;;;;5034268;28;20597;-76
2021/10/22 03:25:19;;;;;;;7.03;3.40;;;;;;;;;;5034053;28;20033;-76
2021/10/22 03:27:48;;;;;;;5.80;3.40;;;;;;;;;;5037540;28;20032;-76
2021/10/22 03:30:14;;;;;;;6.35;3.38;;;;;;;;;;5065431;28;20029;-76
2021/10/22 03:32:40;;;;;;;6.55;3.38;;;;;;;;;;5034526;28;20028;-76
2021/10/22 03:35:06;;;;;;;4.93;3.55;;;;;;;;;;5032958;28;20041;-76
2021/10/22 03:37:33;;;;;;;7.93;3.47;;;;;;;;;;5033408;28;20395;-76
2021/10/22 03:39:59;;;;;;;6.85;4.03;;;;;;;;;;5032747;28;20036;-76
2021/10/22 03:42:25;;;;;;;9.45;3.90;;;;;;;;;;5032956;28;20221;-76
2021/10/22 03:44:51;;;;;;;10.57;4.47;;;;;;;;;;5048239;28;20030;-76
2021/10/22 03:47:17;;;;;;;9.65;4.13;;;;;;;;;;5032949;28;20100;-76
2021/10/22 03:49:44;;;;;;;11.77;4.22;;;;;;;;;;5032183;28;20053;-76
2021/10/22 03:52:10;;;;;;;16.40;5.03;;;;;;;;;;5032954;28;20033;-76
2021/10/22 03:54:36;;;;;;;14.18;4.68;;;;;;;;;;5048166;28;20506;-76
2021/10/22 03:57:02;;;;;;;12.48;5.00;;;;;;;;;;5032777;28;20478;-76
2021/10/22 03:59:28;;;;;;;10.25;4.88;;;;;;;;;;5032511;28;20025;-76
2021/10/22 04:01:54;;;;;;;11.77;5.60;;;;;;;;;;5032360;28;20037;-76
2021/10/22 04:04:27;;;;;;;15.13;5.88;;;;;;;;;;5033784;28;20040;-76
2021/10/22 04:06:53;;;;;;;12.38;5.00;;;;;;;;;;5037601;28;20076;-76
2021/10/22 04:09:20;;;;;;;9.75;4.90;;;;;;;;;;5050957;28;20051;-76
2021/10/22 04:11:46;;;;;;;9.38;4.32;;;;;;;;;;5034136;28;20036;-75
2021/10/22 04:14:12;;;;;;;11.93;4.78;;;;;;;;;;5032575;28;20030;-75
2021/10/22 04:16:38;;;;;;;13.20;5.10;;;;;;;;;;5032280;28;20038;-76
2021/10/22 04:19:04;;;;;;;15.77;4.82;;;;;;;;;;5031549;28;20133;-76
2021/10/22 04:21:30;;;;;;;13.05;5.07;;;;;;;;;;5031778;28;20030;-76
2021/10/22 04:23:56;;;;;;;16.52;4.80;;;;;;;;;;5032126;28;20036;-75
2021/10/22 04:26:22;;;;;;;10.77;5.03;;;;;;;;;;5032247;28;20104;-76
2021/10/22 04:28:48;;;;;;;13.48;5.10;;;;;;;;;;5031964;28;20104;-76
2021/10/22 04:31:14;;;;;;;8.88;5.13;;;;;;;;;;5031486;28;20059;-75
2021/10/22 04:33:40;;;;;;;14.05;5.28;;;;;;;;;;5032117;28;20034;-75
2021/10/22 04:36:11;;;;;;;11.80;5.35;;;;;;;;;;5047553;28;20042;-75
2021/10/22 04:41:22;;;;;;;15.40;6.13;;;;;;;;;;5031556;28;20586;-76
2021/10/22 04:43:50;;;;;;;13.25;5.70;;;3.40;99.90;;;;;;5031738;28;20033;-76
2021/10/22 04:46:16;;;;;;;15.85;6.55;;;4.70;99.90;;;;;;5031885;28;20040;-76
2021/10/22 04:48:42;;;;;;;13.18;6.22;;;;;;;;;;5031841;28;20029;-75
2021/10/22 04:51:08;;;;;;;16.45;6.30;;;4.60;99.90;;;;;;5031431;28;20036;-76
2021/10/22 04:53:34;;;;;;;14.48;6.72;;;4.90;99.90;;;;;;5032029;28;20038;-75
2021/10/22 04:55:59;;;;;;;16.08;5.70;;;6.90;99.90;;;;;;5030360;28;20033;-75
2021/10/22 04:58:25;;;;;;;11.48;5.00;;;4.60;99.90;;;;;;5031724;28;20099;-75
2021/10/22 05:00:51;;;;;;;20.88;5.63;;;4.50;99.90;;;;;;5031258;28;20041;-75
2021/10/22 05:03:17;;;;;;;13.80;5.90;;;4.50;99.90;;;;;;5031146;28;20027;-75
2021/10/22 05:05:43;;;;;;;16.20;6.78;;;4.50;99.90;;;;;;5031463;28;20112;-75
2021/10/22 05:08:08;;;;;;;14.77;6.80;;;4.60;99.90;;;;;;5032003;28;20042;-75
2021/10/22 05:10:34;;;;;;;15.05;7.30;;;4.70;99.90;;;;;;5031496;28;20091;-75
2021/10/22 05:12:59;;;;;;;15.20;7.15;;;4.70;99.90;;;;;;5031172;28;20036;-75
2021/10/22 05:15:26;;;;;;;14.43;7.38;;;4.70;99.90;;;;;;5047124;28;20030;-75
2021/10/22 05:17:51;;;;;;;16.33;6.97;;;4.70;99.90;;;;;;5031721;28;20029;-75
2021/10/22 05:20:17;;;;;;;18.55;8.60;;;4.60;99.90;;;;;;5031053;28;20028;-75
2021/10/22 05:22:43;;;;;;;18.02;7.35;;;4.70;99.90;;;;;;5031693;28;20192;-76
2021/10/22 05:25:11;;;;;;;12.82;6.93;;;4.70;99.90;;;;;;5031749;28;20038;-76
2021/10/22 05:27:37;;;;;;;14.32;8.20;;;4.70;99.90;;;;;;5031264;28;20715;-75
2021/10/22 05:30:04;;;;;;;16.23;7.57;;;4.60;99.90;;;;;;5032104;28;20025;-75
2021/10/22 05:32:29;;;;;;;13.70;7.15;;;4.70;99.90;;;;;;5035546;28;20030;-75
2021/10/22 05:34:55;;;;;;;19.02;8.20;;;4.60;99.90;;;;;;5035413;28;20029;-74
2021/10/22 05:37:21;;;;;;;18.75;8.20;;;4.60;99.90;;;;;;5050798;28;20033;-74
2021/10/22 05:39:47;;;;;;;21.38;8.85;;;4.80;99.90;;;;;;5035197;28;20067;-75
2021/10/22 05:42:12;;;;;;;18.48;8.45;;;4.90;99.90;;;;;;5035056;28;20033;-75
2021/10/22 05:44:38;;;;;;;18.15;8.32;;;4.80;99.90;;;;;;5035002;28;20032;-75
2021/10/22 05:47:04;;;;;;;16.80;8.85;;;4.60;99.90;;;;;;5035000;28;20040;-76
2021/10/22 05:49:30;;;;;;;20.95;9.18;;;4.80;99.90;;;;;;5034711;28;20032;-75
2021/10/22 05:51:55;;;;;;;24.38;9.98;;;4.90;99.90;;;;;;5031819;28;20037;-75
2021/10/22 05:54:21;;;;;;;17.50;9.13;;;5.00;99.90;;;;;;5034586;28;20034;-75
2021/10/22 05:56:47;;;;;;;18.60;8.88;;;5.00;99.90;;;;;;5034743;28;20029;-75
2021/10/22 05:59:13;;;;;;;20.05;9.93;;;5.00;99.90;;;;;;5034605;28;20037;-75
2021/10/22 06:01:39;;;;;;;28.85;11.88;;;5.00;99.90;;;;;;5032984;28;20434;-75
2021/10/22 06:04:04;;;;;;;29.58;11.88;;;5.20;99.90;;;;;;5038267;28;20025;-76
2021/10/22 06:06:30;;;;;;;30.10;12.73;;;5.40;99.90;;;;;;5054511;28;20036;-79
2021/10/22 06:08:58;;;;;;;31.58;15.70;;;5.30;99.90;;;;;;5043719;28;20030;-76
2021/10/22 06:11:24;;;;;;;39.08;17.05;;;5.40;99.90;;;;;;5034121;28;20033;-76
2021/10/22 06:13:49;;;;;;;40.75;17.30;;;5.50;99.90;;;;;;5059988;28;20024;-76
2021/10/22 06:16:15;;;;;;;38.55;17.25;;;6.50;99.90;;;;;;5042263;28;20546;-76
2021/10/22 06:18:46;;;;;;;39.78;17.48;;;5.30;99.90;;;;;;5049603;28;20033;-76
2021/10/22 06:21:21;;;;;;;46.83;18.23;;;5.60;99.90;;;;;;5034169;28;20040;-76
2021/10/22 06:23:56;;;;;;;44.83;19.88;;;5.70;99.90;;;;;;5034504;28;20076;-75
2021/10/22 06:26:24;;;;;;;49.22;19.08;;;5.80;99.90;;;;;;5033340;28;20112;-76
2021/10/22 06:28:51;;;;;;;49.97;20.30;;;5.50;99.90;;;;;;5035444;28;20028;-77
2021/10/22 06:31:17;;;;;;;52.13;20.88;;;5.80;99.90;;;;;;5032421;28;20032;-76
2021/10/22 06:33:43;;;;;;;49.40;20.77;;;5.50;99.90;;;;;;5033329;28;20042;-76
2021/10/22 06:36:09;;;;;;;49.20;20.63;;;6.70;99.90;;;;;;5049572;28;20033;-77
2021/10/22 06:38:35;;;;;;;44.80;19.70;;;5.60;99.90;;;;;;5034867;28;20030;-76
2021/10/22 06:41:02;;;;;;;49.42;19.40;;;6.30;99.90;;;;;;5047536;28;20029;-77
2021/10/22 06:43:28;;;;;;;48.38;20.13;;;5.70;99.90;;;;;;5047392;28;20501;-77
2021/10/22 06:45:53;;;;;;;46.67;19.20;;;5.70;99.90;;;;;;5048225;28;20091;-76
2021/10/22 06:48:20;;;;;;;50.05;20.35;;;5.70;99.90;;;;;;5048622;28;20025;-76
2021/10/22 06:50:46;;;;;;;48.58;20.25;;;5.80;99.90;;;;;;5037221;28;20104;-76
2021/10/22 06:53:12;;;;;;;44.55;19.90;;;5.70;99.90;;;;;;5035377;28;20117;-76
2021/10/22 06:55:38;;;;;;;50.60;19.35;;;5.80;99.90;;;;;;5034774;28;20503;-75
2021/10/22 06:58:05;;;;;;;50.63;20.35;;;5.90;99.90;;;;;;5033795;28;20033;-75
2021/10/22 07:00:32;;;;;;;43.40;20.17;;;6.30;99.90;;;;;;5048844;28;20458;-75
2021/10/22 07:02:58;;;;;;;47.92;20.83;;;5.80;99.90;;;;;;5042963;28;20459;-75
2021/10/22 07:07:59;;;;;;;47.28;20.83;;;5.80;99.90;;;;;;5036331;28;20032;-75
2021/10/22 07:10:25;;;;;;;42.95;19.95;;;5.90;99.90;;;;;;5033476;28;20029;-77
2021/10/22 07:12:51;;;;;;;48.40;19.77;;;5.90;99.90;;;;;;5033005;28;20103;-76
2021/10/22 07:15:17;;;;;;;50.38;20.77;;;7.20;99.90;;;;;;5052125;28;20037;-76
2021/10/22 07:17:45;;;;;;;41.15;19.63;;;5.80;99.90;;;;;;5033501;28;20026;-76
2021/10/22 07:20:12;;;;;;;49.53;20.65;;;5.90;99.90;;;;;;5032690;28;20472;-76
2021/10/22 07:22:47;;;;;;;36.97;18.30;;;6.40;99.90;;;;;;5033612;28;20029;-76
2021/10/22 07:25:12;;;;;;;38.92;18.65;;;5.90;99.90;;;;;;5046598;28;20108;-76
2021/10/22 07:27:38;;;;;;;41.60;18.88;;;5.90;99.90;;;;;;5032790;28;20072;-76
2021/10/22 07:30:04;;;;;;;42.63;17.52;;;6.00;99.90;;;;;;5032482;28;20029;-76
2021/10/22 07:32:30;;;;;;;39.78;16.70;;;5.90;99.90;;;;;;5033563;28;20025;-78
2021/10/22 07:34:56;;;;;;;38.00;16.75;;;5.60;99.90;;;;;;5035671;28;20039;-77
2021/10/22 07:37:21;;;;;;;40.85;18.67;;;6.00;99.90;;;;;;5035283;28;20037;-77
2021/10/22 07:39:47;;;;;;;40.58;18.55;;;6.10;99.90;;;;;;5050157;28;20464;-78
2021/10/22 07:42:12;;;;;;;45.78;16.60;;;6.30;99.90;;;;;;5032907;28;20115;-78
2021/10/22 07:44:38;;;;;;;44.20;17.95;;;6.10;99.90;;;;;;5032220;28;20033;-77
2021/10/22 07:47:04;;;;;;;34.65;18.08;;;6.40;99.90;;;;;;5033552;28;20064;-77
2021/10/22 07:49:29;;;;;;;36.92;18.52;;;6.50;99.90;;;;;;5033009;28;20536;-78
2021/10/22 07:51:55;;;;;;;38.45;16.90;;;6.50;99.90;;;;;;5034326;28;20660;-77
2021/10/22 07:54:21;;;;;;;42.45;17.67;;;6.60;99.90;;;;;;5033561;28;20041;-78
2021/10/22 07:56:46;;;;;;;36.85;17.40;;;6.70;99.90;;;;;;5033812;28;20033;-77
2021/10/22 07:59:13;;;;;;;37.50;17.83;;;6.80;99.90;;;;;;5049062;28;20057;-77
2021/10/22 08:01:39;;;;;;;32.13;17.20;;;6.80;99.90;;;;;;5033278;28;20029;-77
2021/10/22 08:04:05;;;;;;;32.95;15.55;;;7.10;99.90;;;;;;5033663;28;20392;-77
2021/10/22 08:06:31;;;;;;;31.38;14.55;;;7.50;99.90;;;;;;5030118;28;20498;-77
2021/10/22 08:08:57;;;;;;;25.17;12.90;;;7.10;99.90;;;;;;5040146;28;20036;-77
2021/10/22 08:11:23;;;;;;;22.15;12.50;;;7.10;99.90;;;;;;5042033;28;20029;-77
2021/10/22 08:13:50;;;;;;;24.83;11.18;;;7.30;99.90;;;;;;5033190;28;20082;-78
2021/10/22 08:16:16;;;;;;;23.75;11.48;;;6.90;99.90;;;;;;5036168;28;20025;-77
2021/10/22 08:18:42;;;;;;;23.42;11.80;;;7.20;99.90;;;;;;5038716;28;20029;-77
2021/10/22 08:23:52;;;;;;;23.13;12.50;;;7.20;99.90;;;;;;5025061;28;20044;-78
2021/10/22 08:26:18;;;;;;;20.58;10.23;;;7.80;99.90;;;;;;5033969;28;20030;-78
2021/10/22 08:28:45;;;;;;;18.45;9.48;;;9.00;99.90;;;;;;5048079;28;20029;-78
2021/10/22 08:31:11;;;;;;;16.02;9.30;;;7.40;99.90;;;;;;5031102;28;20021;-77
2021/10/22 08:33:38;;;;;;;15.02;8.48;;;7.90;99.90;;;;;;5039015;28;20114;-77
2021/10/22 08:36:06;;;;;;;15.77;8.82;;;7.80;99.90;;;;;;5023204;28;20037;-77
2021/10/22 08:38:33;;;;;;;16.17;8.82;;;9.30;99.90;;;;;;5027060;28;20033;-77
2021/10/22 08:40:59;;;;;;;15.20;7.47;;;9.20;99.90;;;;;;5032487;28;20111;-77
2021/10/22 08:43:27;;;;;;;14.65;6.85;;;8.60;99.90;;;;;;5032437;28;20079;-77
2021/10/22 08:45:54;;;;;;;16.45;6.00;;;9.70;99.90;;;;;;5037827;28;20041;-78
2021/10/22 08:48:20;;;;;;;16.05;5.47;;;10.20;99.90;;;;;;5037715;28;20470;-77
2021/10/22 08:50:46;;;;;;;8.88;4.53;;;11.30;99.90;;;;;;5031984;28;20493;-77
2021/10/22 08:53:12;;;;;;;11.45;5.70;;;11.40;99.90;;;;;;5047129;28;20017;-77
2021/10/22 08:55:38;;;;;;;16.60;6.85;;;10.60;99.90;;;;;;5033392;28;20029;-76
2021/10/22 08:58:04;;;;;;;15.15;6.80;;;10.10;99.90;;;;;;5047842;28;20394;-77
2021/10/22 09:00:30;;;;;;;14.13;6.72;;;8.80;99.90;;;;;;5031419;28;20582;-78
2021/10/22 09:03:12;;;;;;;16.00;7.85;;;8.60;99.90;;;;;;5032619;28;20401;-77
2021/10/22 09:05:56;;;;;;;13.73;7.07;;;7.80;99.90;;;;;;5040737;28;20025;-77
2021/10/22 09:08:32;;;;;;;15.00;6.25;;;8.30;99.90;;;;;;5045316;28;20088;-77
2021/10/22 09:10:59;;;;;;;13.45;5.90;;;9.50;99.90;;;;;;5049467;28;20489;-78
2021/10/22 09:13:33;;;;;;;14.85;6.10;;;10.50;99.90;;;;;;5042681;28;20375;-78
2021/10/22 09:16:17;;;;;;;13.35;6.70;;;11.20;99.90;;;;;;5033334;28;20061;-78
2021/10/22 09:18:43;;;;;;;14.95;6.43;;;11.60;99.90;;;;;;5034540;28;20494;-78
2021/10/22 09:21:09;;;;;;;12.35;5.97;;;10.90;99.90;;;;;;5031248;28;20100;-77
2021/10/22 09:23:38;;;;;;;12.32;5.80;;;11.00;99.90;;;;;;5032681;28;20416;-78
2021/10/22 09:26:20;;;;;;;13.75;5.93;;;11.90;99.90;;;;;;5032337;28;20026;-77
2021/10/22 09:28:47;;;;;;;18.03;7.27;;;9.70;99.90;;;;;;5032095;28;20393;-77
2021/10/22 09:31:19;;;;;;;13.50;6.50;;;10.00;99.90;;;;;;5030270;28;20044;-77
2021/10/22 09:33:56;;;;;;;14.60;6.33;;;8.30;99.90;;;;;;5032852;28;20433;-77
2021/10/22 09:36:36;;;;;;;12.50;6.22;;;8.80;99.90;;;;;;5047709;28;20029;-78
2021/10/22 09:39:13;;;;;;;17.38;5.82;;;9.30;99.90;;;;;;5032709;28;20026;-77
2021/10/22 09:41:54;;;;;;;12.32;5.45;;;10.80;99.90;;;;;;5030511;28;20057;-76
2021/10/22 09:44:30;;;;;;;14.50;5.93;;;11.50;99.90;;;;;;5032099;28;20022;-78
2021/10/22 09:47:04;;;;;;;12.85;5.22;;;12.10;99.90;;;;;;5032490;28;20057;-76
2021/10/22 09:49:36;;;;;;;12.93;5.32;;;11.70;99.90;;;;;;5032113;28;20478;-78
2021/10/22 09:52:03;;;;;;;16.70;6.03;;;10.80;99.90;;;;;;5032256;28;20034;-78
2021/10/22 09:54:31;;;;;;;15.23;5.10;;;11.50;99.90;;;;;;5041776;28;20029;-76
2021/10/22 09:56:58;;;;;;;15.13;5.18;;;11.80;99.90;;;;;;5033955;28;20502;-76
2021/10/22 09:59:27;;;;;;;13.73;5.00;;;10.80;99.90;;;;;;5029919;28;20033;-76
2021/10/22 10:01:57;;;;;;;13.35;4.78;;;11.50;99.90;;;;;;5029664;28;20033;-79
2021/10/22 10:04:24;;;;;;;15.93;6.22;;;11.40;99.90;;;;;;5034528;28;20018;-81
2021/10/22 10:06:51;;;;;;;15.60;5.18;;;11.30;99.90;;;;;;5033288;28;20097;-77
2021/10/22 10:09:17;;;;;;;13.60;5.30;;;10.50;99.90;;;;;;5030982;28;20045;-76
2021/10/22 10:11:43;;;;;;;16.25;4.90;;;10.50;99.90;;;;;;5037777;28;20128;-76
2021/10/22 10:14:12;;;;;;;13.20;4.15;;;10.00;99.90;;;;;;5041639;28;20041;-76
2021/10/22 10:16:38;;;;;;;9.60;3.38;;;9.50;99.90;;;;;;5031323;28;20486;-75
2021/10/22 10:19:07;;;;;;;11.85;3.75;;;10.60;99.90;;;;;;5034601;28;20025;-76
2021/10/22 10:21:39;;;;;;;12.00;3.03;;;12.00;99.90;;;;;;5033958;28;20108;-76
2021/10/22 10:24:05;;;;;;;8.75;2.70;;;12.80;99.90;;;;;;5014939;28;20024;-76
2021/10/22 10:26:33;;;;;;;8.45;2.78;;;13.10;99.90;;;;;;5014723;28;20496;-77
2021/10/22 10:29:03;;;;;;;12.90;3.40;;;13.60;99.90;;;;;;5014512;28;20038;-77
2021/10/22 10:31:44;;;;;;;13.00;3.15;;;13.10;99.90;;;;;;5014482;28;20044;-78
2021/10/22 10:34:29;;;;;;;11.75;2.90;;;13.20;99.90;;;;;;5034546;28;20037;-77
2021/10/22 10:36:59;;;;;;;11.57;3.05;;;13.70;99.90;;;;;;5034151;28;20026;-78
2021/10/22 10:39:43;;;;;;;12.35;3.35;;;13.60;99.90;;;;;;5033810;28;20029;-77
2021/10/22 10:42:33;;;;;;;6.95;2.65;;;13.20;99.90;;;;;;5033883;28;20025;-77
2021/10/22 10:45:02;;;;;;;8.88;2.65;;;12.50;99.90;;;;;;5024781;28;20040;-78
2021/10/22 10:47:27;;;;;;;13.23;3.20;;;12.90;99.90;;;;;;5034111;28;20022;-78
2021/10/22 10:49:53;;;;;;;12.82;3.33;;;13.60;99.90;;;;;;5033588;28;20036;-77
2021/10/22 10:52:37;;;;;;;13.80;3.30;;;14.80;99.90;;;;;;5049123;28;20025;-76
2021/10/22 10:55:39;;;;;;;12.45;3.67;;;13.90;99.90;;;;;;5049043;28;20025;-78
2021/10/22 10:58:07;;;;;;;10.45;2.88;;;13.50;99.90;;;;;;5033394;28;20037;-78
2021/10/22 11:00:40;;;;;;;10.32;2.53;;;13.70;99.90;;;;;;5032935;28;20393;-77
2021/10/22 11:03:11;;;;;;;9.30;2.53;;;13.10;99.90;;;;;;5033593;28;20033;-76
2021/10/22 11:08:28;;;;;;;11.10;2.25;;;13.40;99.90;;;;;;5033244;28;20038;-77
2021/10/22 11:11:24;;;;;;;12.70;2.47;;;12.60;99.90;;;;;;5033094;28;20517;-77
2021/10/22 11:13:52;;;;;;;13.77;2.30;;;12.50;99.90;;;;;;5030138;28;20516;-76
2021/10/22 11:16:38;;;;;;;10.18;2.08;;;13.10;99.90;;;;;;5032746;28;20024;-76
2021/10/22 11:19:11;;;;;;;11.68;2.47;;;13.40;99.90;;;;;;5014055;28;20026;-76
2021/10/22 11:21:44;;;;;;;11.63;2.22;;;12.20;99.90;;;;;;5012580;28;20030;-77
2021/10/22 11:24:13;;;;;;;;;;;12.10;99.90;;;;;;5033905;28;20092;-77
2021/10/22 11:26:39;;;;;;;11.88;2.10;;;12.40;99.90;;;;;;5032814;28;19905;-77
2021/10/22 11:29:17;;;;;;;8.65;2.13;;;12.80;99.90;;;;;;5054630;28;20032;-77
2021/10/22 11:31:47;;;;;;;10.52;1.80;;;12.20;99.90;;;;;;5040640;28;20426;-77
2021/10/22 11:34:22;;;;;;;11.88;2.25;;;12.90;99.90;;;;;;5052830;28;20029;-77
2021/10/22 11:37:00;;;;;;;9.27;1.92;;;12.90;99.90;;;;;;5030896;28;20087;-77
2021/10/22 11:39:30;;;;;;;7.03;1.70;;;13.10;99.90;;;;;;5033020;28;20104;-77
2021/10/22 11:42:02;;;;;;;10.68;2.08;;;13.40;99.90;;;;;;5048270;28;20449;-77
2021/10/22 11:44:28;;;;;;;9.98;1.50;;;13.40;99.90;;;;;;5042713;28;20046;-77
2021/10/22 11:46:53;;;;;;;8.27;1.60;;;13.80;99.90;;;;;;5031018;28;20041;-77
2021/10/22 11:49:23;;;;;;;10.23;2.45;;;13.70;99.90;;;;;;5068189;28;20025;-77
2021/10/22 11:51:55;;;;;;;5.35;1.88;;;13.10;99.90;;;;;;5067650;28;20094;-77
2021/10/22 11:54:23;;;;;;;7.22;1.20;;;12.90;99.90;;;;;;5039975;28;20030;-76
2021/10/22 11:56:48;;;;;;;4.30;1.50;;;13.60;99.90;;;;;;5032519;28;20044;-76
2021/10/22 11:59:14;;;;;;;8.57;1.73;;;13.60;99.90;;;;;;5032303;28;20026;-77
2021/10/22 12:01:41;;;;;;;9.55;1.77;;;13.80;99.90;;;;;;5031497;28;20064;-77
2021/10/22 12:04:12;;;;;;;9.48;2.22;;;;;;;;;;5031625;28;20531;-77
2021/10/22 12:06:38;;;;;;;9.98;2.03;;;;;;;;;;5035686;28;20026;-78
2021/10/22 12:09:04;;;;;;;7.40;1.50;;;;;;;;;;5051217;28;20505;-78
2021/10/22 12:11:30;;;;;;;12.63;1.77;;;;;;;;;;5067230;28;20029;-78
2021/10/22 12:13:56;;;;;;;6.97;1.65;;;;;;;;;;5048568;28;20056;-78
2021/10/22 12:16:29;;;;;;;7.35;1.45;;;;;;;;;;5032631;28;20540;-78
2021/10/22 12:18:58;;;;;;;5.13;1.80;;;;;;;;;;5032586;28;20021;-78
2021/10/22 12:21:25;;;;;;;8.88;1.70;;;;;;;;;;5031550;28;20029;-78
2021/10/22 12:23:58;;;;;;;12.18;2.25;;;;;;;;;;5034214;28;20100;-77
2021/10/22 12:26:27;;;;;;;8.35;1.67;;;;;;;;;;5032301;28;20026;-77
2021/10/22 12:29:04;;;;;;;6.28;1.63;;;;;;;;;;5031724;28;20025;-78
2021/10/22 12:31:40;;;;;;;8.77;2.15;;;;;;;;;;5031560;28;20390;-76
2021/10/22 12:34:09;;;;;;;9.38;1.80;;;;;;;;;;5016409;28;20025;-78
2021/10/22 12:36:36;;;;;;;4.80;1.35;;;;;;;;;;5031587;28;20053;-78
2021/10/22 12:39:20;;;;;;;9.63;1.52;;;;;;;;;;5031590;28;20029;-77
2021/10/22 12:41:46;;;;;;;3.92;1.50;;;;;;;;;;5031648;28;20053;-78
2021/10/22 12:44:13;;;;;;;7.65;1.75;;;;;;;;;;5031804;28;20033;-78
2021/10/22 12:46:58;;;;;;;6.88;1.70;;;;;;;;;;5031883;28;20037;-78
2021/10/22 12:49:25;;;;;;;6.20;1.58;;;;;;;;;;5033221;28;20091;-78
2021/10/22 12:51:58;;;;;;;7.03;1.50;;;;;;;;;;5055546;28;20060;-79
2021/10/22 12:54:25;;;;;;;5.47;1.38;;;;;;;;;;5042490;28;20044;-80
2021/10/22 12:56:57;;;;;;;5.65;1.55;;;;;;;;;;5039207;28;20425;-79
2021/10/22 12:59:25;;;;;;;14.80;1.88;;;;;;;;;;5037095;28;20032;-79
2021/10/22 13:01:53;;;;;;;13.38;2.08;;;;;;;;;;5037415;28;20080;-78
2021/10/22 13:04:21;;;;;;;7.85;1.98;;;;;;;;;;5040078;28;20036;-79
2021/10/22 13:22:45;;;;;;;8.40;1.85;;;;;;;;;;5032410;28;20071;-80
2021/10/22 13:25:11;;;;;;;6.45;1.38;;;;;;;;;;5036678;28;20018;-80
2021/10/22 13:27:37;;;;;;;10.77;2.20;;;;;;;;;;5037069;28;20716;-80
2021/10/22 13:30:11;;;;;;;5.75;1.75;;;;;;;;;;5034098;28;20029;-80
2021/10/22 13:32:37;;;;;;;8.02;1.70;;;;;;;;;;5037080;28;20490;-79
2021/10/22 13:35:04;;;;;;;7.32;1.77;;;;;;;;;;5055924;28;20033;-79
2021/10/22 13:37:31;;;;;;;9.35;1.90;;;;;;;;;;5056764;28;20029;-79
2021/10/22 13:39:58;;;;;;;6.53;1.98;;;;;;;;;;5043075;28;20025;-80
2021/10/22 13:42:24;;;;;;;6.53;1.70;;;;;;;;;;5036871;28;20083;-81
2021/10/22 13:44:50;;;;;;;5.90;1.30;;;;;;;;;;5032064;28;20819;-81